createdAt,value
2023-01-20T00:01:46.676Z,12.70
2023-01-20T00:04:15.549Z,26.90
2023-01-20T00:06:43.811Z,18.20
2023-01-20T00:09:16.887Z,19.60
2023-01-20T00:11:46.324Z,19.00
2023-01-20T00:14:14.841Z,19.10
2023-01-20T00:16:43.089Z,21.90
2023-01-20T00:19:14.865Z,17.70
2023-01-20T00:21:43.030Z,16.50
2023-01-20T00:24:11.479Z,65.20
2023-01-20T00:26:39.745Z,26.10
2023-01-20T00:29:09.805Z,28.50
2023-01-20T00:31:38.320Z,24.80
2023-01-20T00:34:06.502Z,22.60
2023-01-20T00:36:34.743Z,24.50
2023-01-20T00:39:04.101Z,17.10
2023-01-20T00:41:32.500Z,22.30
2023-01-20T00:44:00.574Z,22.10
2023-01-20T00:46:29.322Z,21.90
2023-01-20T00:48:57.672Z,18.10
2023-01-20T00:51:25.801Z,20.00
2023-01-20T00:53:54.152Z,18.80
2023-01-20T00:56:22.304Z,18.00
2023-01-20T00:58:50.748Z,17.70
2023-01-20T01:01:19.018Z,23.10
2023-01-20T01:03:47.289Z,16.70
2023-01-20T01:06:17.965Z,18.10
2023-01-20T01:08:46.069Z,19.70
2023-01-20T01:11:14.765Z,25.80
2023-01-20T01:13:43.315Z,17.20
2023-01-20T01:16:13.158Z,19.70
2023-01-20T01:18:43.519Z,17.30
2023-01-20T01:21:15.525Z,19.20
2023-01-20T01:23:44.396Z,18.10
2023-01-20T01:26:13.451Z,16.90
2023-01-20T01:28:41.821Z,20.40
2023-01-20T01:31:10.175Z,18.50
2023-01-20T01:33:38.347Z,18.60
2023-01-20T01:36:08.873Z,18.00
2023-01-20T01:38:37.140Z,19.20
2023-01-20T01:41:05.518Z,16.30
2023-01-20T01:43:37.041Z,20.70
2023-01-20T01:46:05.821Z,17.60
2023-01-20T01:48:37.002Z,16.40
2023-01-20T01:51:11.517Z,18.00
2023-01-20T01:53:54.195Z,20.30
2023-01-20T01:56:24.173Z,21.80
2023-01-20T01:58:56.344Z,18.60
2023-01-20T02:01:26.036Z,22.60
2023-01-20T02:04:03.711Z,21.50
2023-01-20T02:06:38.712Z,17.10
2023-01-20T02:09:07.053Z,18.40
2023-01-20T02:11:57.891Z,19.50
2023-01-20T02:14:35.278Z,25.70
2023-01-20T02:17:23.099Z,17.90
2023-01-20T02:20:13.391Z,28.90
2023-01-20T02:22:44.769Z,19.60
2023-01-20T02:25:43.023Z,30.90
2023-01-20T02:28:26.244Z,29.80
2023-01-20T02:31:35.936Z,29.00
2023-01-20T02:34:32.465Z,19.70
2023-01-20T02:37:10.151Z,23.60
2023-01-20T02:40:00.543Z,28.00
2023-01-20T02:42:43.906Z,43.30
2023-01-20T02:45:27.220Z,27.60
2023-01-20T02:48:24.870Z,35.70
2023-01-20T02:50:58.681Z,37.80
2023-01-20T02:53:35.044Z,29.90
2023-01-20T02:56:04.899Z,25.30
2023-01-20T02:58:42.655Z,25.80
2023-01-20T03:01:15.436Z,23.90
2023-01-20T03:03:47.043Z,19.40
2023-01-20T03:06:21.605Z,19.40
2023-01-20T03:08:52.823Z,61.10
2023-01-20T03:11:21.563Z,60.40
2023-01-20T03:13:57.725Z,31.10
2023-01-20T03:16:27.905Z,38.30
2023-01-20T03:18:56.356Z,19.60
2023-01-20T03:21:25.021Z,21.30
2023-01-20T03:23:57.594Z,21.90
2023-01-20T03:26:25.983Z,28.40
2023-01-20T03:28:54.908Z,27.50
2023-01-20T03:31:26.870Z,21.40
2023-01-20T03:33:58.874Z,21.60
2023-01-20T03:36:30.363Z,19.40
2023-01-20T03:38:59.694Z,17.60
2023-01-20T03:42:07.558Z,17.70
2023-01-20T03:44:54.892Z,33.60
2023-01-20T03:47:52.525Z,26.20
2023-01-20T03:50:36.093Z,22.30
2023-01-20T03:53:28.545Z,29.80
2023-01-20T03:56:31.737Z,18.70
2023-01-20T03:59:03.595Z,20.60
2023-01-20T04:01:37.247Z,20.30
2023-01-20T04:04:10.294Z,19.60
2023-01-20T04:06:41.458Z,16.60
2023-01-20T04:09:16.274Z,19.30
2023-01-20T04:11:44.548Z,23.70
2023-01-20T04:14:13.125Z,27.70
2023-01-20T04:16:42.131Z,18.70
2023-01-20T04:19:10.399Z,17.70
2023-01-20T04:21:58.853Z,19.20
2023-01-20T04:24:38.911Z,20.20
2023-01-20T04:27:07.475Z,25.30
2023-01-20T04:29:35.872Z,18.50
2023-01-20T04:32:04.945Z,18.70
2023-01-20T04:34:33.594Z,19.40
2023-01-20T04:37:01.942Z,22.60
2023-01-20T04:39:30.941Z,20.20
2023-01-20T04:41:59.416Z,59.50
2023-01-20T04:44:27.709Z,22.00
2023-01-20T04:46:58.259Z,19.90
2023-01-20T04:49:26.610Z,22.70
2023-01-20T04:51:56.015Z,26.70
2023-01-20T04:54:24.501Z,44.70
2023-01-20T04:56:52.974Z,24.60
2023-01-20T04:59:22.043Z,33.90
2023-01-20T05:01:50.962Z,24.90
2023-01-20T05:04:19.870Z,23.30
2023-01-20T05:06:48.245Z,27.50
2023-01-20T05:09:17.551Z,28.10
2023-01-20T05:11:45.858Z,16.30
2023-01-20T05:14:14.309Z,13.90
2023-01-20T05:16:43.714Z,20.10
2023-01-20T05:19:13.135Z,22.40
2023-01-20T05:21:42.888Z,13.60
2023-01-20T05:24:13.869Z,23.40
2023-01-20T05:26:42.866Z,24.30
2023-01-20T05:29:11.344Z,21.30
2023-01-20T05:31:43.603Z,15.30
2023-01-20T05:34:12.272Z,15.00
2023-01-20T05:36:40.766Z,11.90
2023-01-20T05:39:09.174Z,17.50
2023-01-20T05:41:37.649Z,20.30
2023-01-20T05:44:06.290Z,15.90
2023-01-20T05:46:34.704Z,18.50
2023-01-20T05:49:03.449Z,15.50
2023-01-20T05:51:33.582Z,18.10
2023-01-20T05:54:01.743Z,21.90
2023-01-20T05:56:30.584Z,18.00
2023-01-20T05:58:59.010Z,18.70
2023-01-20T06:01:28.193Z,19.20
2023-01-20T06:03:57.089Z,15.70
2023-01-20T06:06:26.788Z,20.30
2023-01-20T06:08:55.277Z,25.40
2023-01-20T06:11:23.963Z,22.00
2023-01-20T06:13:52.401Z,14.80
2023-01-20T06:16:21.334Z,11.40
2023-01-20T06:18:50.030Z,14.40
2023-01-20T06:21:18.929Z,19.50
2023-01-20T06:23:47.272Z,13.70
2023-01-20T06:26:15.607Z,15.00
2023-01-20T06:28:44.449Z,14.70
2023-01-20T06:31:17.761Z,11.30
2023-01-20T06:33:47.612Z,16.10
2023-01-20T06:36:17.933Z,19.70
2023-01-20T06:38:51.571Z,24.10
2023-01-20T06:41:21.283Z,11.80
2023-01-20T06:43:51.647Z,13.30
2023-01-20T06:46:20.709Z,11.80
2023-01-20T06:48:49.677Z,12.40
2023-01-20T06:51:21.911Z,11.80
2023-01-20T06:53:50.829Z,19.60
2023-01-20T06:56:19.494Z,13.50
2023-01-20T06:58:50.043Z,13.60
2023-01-20T07:01:26.003Z,14.50
2023-01-20T07:03:55.591Z,16.00
2023-01-20T07:06:40.772Z,17.90
2023-01-20T07:09:12.477Z,24.10
2023-01-20T07:11:41.386Z,18.40
2023-01-20T07:14:10.844Z,20.00
2023-01-20T07:16:40.826Z,24.80
2023-01-20T07:19:14.240Z,19.10
2023-01-20T07:21:43.254Z,14.10
2023-01-20T07:24:11.646Z,16.70
2023-01-20T07:26:41.435Z,15.70
2023-01-20T07:29:10.841Z,11.90
2023-01-20T07:31:40.636Z,16.60
2023-01-20T07:34:09.653Z,20.70
2023-01-20T07:36:38.639Z,12.70
2023-01-20T07:39:06.950Z,14.00
2023-01-20T07:41:35.918Z,18.70
2023-01-20T07:44:05.925Z,15.60
2023-01-20T07:46:34.253Z,16.00
2023-01-20T07:49:03.936Z,16.60
2023-01-20T07:51:33.432Z,23.00
2023-01-20T07:54:03.068Z,21.00
2023-01-20T07:56:32.856Z,23.00
2023-01-20T07:59:01.846Z,21.70
2023-01-20T08:01:32.977Z,21.40
2023-01-20T08:04:02.131Z,23.30
2023-01-20T08:06:31.624Z,26.90
2023-01-20T08:09:02.830Z,21.80
2023-01-20T08:11:35.322Z,29.40
2023-01-20T08:14:03.910Z,34.60
2023-01-20T08:16:32.902Z,28.20
2023-01-20T08:19:01.894Z,45.90
2023-01-20T08:21:32.900Z,49.70
2023-01-20T08:24:04.859Z,62.80
2023-01-20T08:26:34.763Z,43.40
2023-01-20T08:29:06.224Z,42.90
2023-01-20T08:31:35.322Z,48.70
2023-01-20T08:34:06.034Z,38.30
2023-01-20T08:36:41.545Z,30.70
2023-01-20T08:39:15.492Z,30.50
2023-01-20T08:44:15.938Z,49.00
2023-01-20T08:46:45.126Z,34.90
2023-01-20T08:49:16.466Z,56.50
2023-01-20T08:52:02.667Z,25.80
2023-01-20T08:54:34.833Z,13.10
2023-01-20T08:57:03.969Z,18.00
2023-01-20T08:59:33.641Z,26.00
2023-01-20T09:02:02.740Z,13.30
2023-01-20T09:04:31.321Z,25.20
2023-01-20T09:07:00.461Z,30.00
2023-01-20T09:09:29.187Z,20.90
2023-01-20T09:11:57.521Z,21.80
2023-01-20T09:14:26.395Z,24.60
2023-01-20T09:16:54.766Z,19.20
2023-01-20T09:19:23.615Z,17.90
2023-01-20T09:21:52.137Z,15.50
2023-01-20T09:24:20.588Z,23.50
2023-01-20T09:26:49.860Z,15.00
2023-01-20T09:29:20.568Z,11.20
2023-01-20T09:31:58.532Z,12.50
2023-01-20T09:34:29.716Z,17.10
2023-01-20T09:37:26.656Z,14.00
2023-01-20T09:40:14.212Z,13.20
2023-01-20T09:43:22.915Z,16.70
2023-01-20T09:46:07.952Z,18.30
2023-01-20T09:49:33.726Z,18.10
2023-01-20T09:52:43.874Z,20.50
2023-01-20T09:55:29.571Z,25.10
2023-01-20T09:58:20.683Z,19.50
2023-01-20T10:01:00.123Z,16.20
2023-01-20T10:03:38.025Z,14.10
2023-01-20T10:06:16.435Z,13.80
2023-01-20T10:09:04.855Z,12.30
2023-01-20T10:11:40.548Z,14.10
2023-01-20T10:14:21.927Z,14.90
2023-01-20T10:17:25.632Z,10.90
2023-01-20T10:20:10.433Z,13.80
2023-01-20T10:22:53.738Z,14.10
2023-01-20T10:25:30.733Z,11.60
2023-01-20T10:28:09.041Z,21.70
2023-01-20T10:30:39.387Z,14.30
2023-01-20T10:33:16.651Z,16.50
2023-01-20T10:35:52.136Z,16.50
2023-01-20T10:38:36.756Z,16.70
2023-01-20T10:41:08.248Z,18.20
2023-01-20T10:43:37.009Z,20.80
2023-01-20T10:46:30.399Z,13.00
2023-01-20T10:49:46.255Z,13.90
2023-01-20T10:52:33.785Z,19.40
2023-01-20T10:55:25.214Z,20.50
2023-01-20T10:57:59.350Z,19.70
2023-01-20T11:00:31.587Z,16.40
2023-01-20T11:03:02.536Z,18.20
2023-01-20T11:05:38.387Z,17.80
2023-01-20T11:08:15.948Z,20.00
2023-01-20T11:10:46.467Z,20.60
2023-01-20T11:13:14.802Z,29.20
2023-01-20T11:15:53.974Z,40.10
2023-01-20T11:18:31.635Z,24.30
2023-01-20T11:21:06.629Z,29.10
2023-01-20T11:23:37.958Z,28.30
2023-01-20T11:26:19.199Z,20.60
2023-01-20T11:29:11.458Z,13.90
2023-01-20T11:31:41.830Z,13.10
2023-01-20T11:34:22.896Z,16.10
2023-01-20T11:37:11.919Z,21.80
2023-01-20T11:39:56.629Z,35.40
2023-01-20T11:42:26.341Z,40.70
2023-01-20T11:45:21.598Z,46.10
2023-01-20T11:48:20.406Z,55.00
2023-01-20T11:50:56.587Z,81.60
2023-01-20T11:53:26.854Z,52.00
2023-01-20T11:56:15.238Z,38.90
2023-01-20T11:59:02.156Z,61.40
2023-01-20T12:02:00.487Z,62.70
2023-01-20T12:04:47.142Z,38.80
2023-01-20T12:07:23.709Z,40.50
2023-01-20T12:09:56.907Z,39.60
2023-01-20T12:12:40.232Z,35.90
2023-01-20T12:15:19.624Z,35.20
2023-01-20T12:18:09.690Z,33.70
2023-01-20T12:21:11.275Z,33.60
2023-01-20T12:23:52.710Z,28.10
2023-01-20T12:26:23.837Z,27.10
2023-01-20T12:29:20.571Z,25.90
2023-01-20T12:31:51.014Z,32.10
2023-01-20T12:34:39.080Z,27.30
2023-01-20T12:37:43.705Z,33.50
2023-01-20T12:43:09.669Z,35.70
2023-01-20T12:46:12.061Z,35.00
2023-01-20T12:48:55.777Z,33.10
2023-01-20T12:51:30.781Z,34.90
2023-01-20T12:54:30.515Z,44.60
2023-01-20T12:57:36.196Z,48.40
2023-01-20T13:00:36.502Z,50.90
2023-01-20T13:03:32.897Z,38.20
2023-01-20T13:06:01.942Z,35.10
2023-01-20T13:08:58.794Z,45.90
2023-01-20T13:12:05.274Z,52.30
2023-01-20T13:14:47.662Z,52.30
2023-01-20T13:17:37.862Z,33.40
2023-01-20T13:20:16.790Z,31.80
2023-01-20T13:22:47.972Z,38.40
2023-01-20T13:25:18.157Z,40.40
2023-01-20T13:27:50.925Z,40.50
2023-01-20T13:30:43.243Z,45.10
2023-01-20T13:33:27.120Z,50.80
2023-01-20T13:35:56.082Z,67.20
2023-01-20T13:38:31.090Z,72.40
2023-01-20T13:41:06.328Z,28.10
2023-01-20T13:43:36.527Z,33.00
2023-01-20T13:46:04.947Z,34.10
2023-01-20T13:48:36.068Z,40.70
2023-01-20T13:51:17.164Z,27.10
2023-01-20T13:53:46.460Z,18.60
2023-01-20T13:56:27.697Z,22.00
2023-01-20T13:58:58.465Z,22.60
2023-01-20T14:01:29.583Z,42.20
2023-01-20T14:04:02.616Z,37.70
2023-01-20T14:06:34.300Z,47.60
2023-01-20T14:09:03.486Z,54.00
2023-01-20T14:11:32.129Z,50.90
2023-01-20T14:14:03.551Z,33.80
2023-01-20T14:16:35.932Z,28.00
2023-01-20T14:19:25.141Z,30.00
2023-01-20T14:21:56.554Z,33.60
2023-01-20T14:24:31.113Z,34.50
2023-01-20T14:27:08.097Z,34.80
2023-01-20T14:29:36.580Z,32.60
2023-01-20T14:32:35.055Z,30.20
2023-01-20T14:35:18.602Z,37.30
2023-01-20T14:37:50.930Z,40.80
2023-01-20T14:40:33.187Z,30.40
2023-01-20T14:43:13.533Z,28.70
2023-01-20T14:45:45.701Z,36.90
2023-01-20T14:48:28.339Z,33.90
2023-01-20T14:51:04.504Z,33.20
2023-01-20T14:53:33.382Z,25.90
2023-01-20T14:56:08.411Z,25.10
2023-01-20T14:58:45.705Z,43.20
2023-01-20T15:01:26.313Z,32.80
2023-01-20T15:04:02.127Z,40.40
2023-01-20T15:06:31.729Z,31.30
2023-01-20T15:09:06.971Z,35.80
2023-01-20T15:11:36.782Z,35.30
2023-01-20T15:14:09.196Z,29.90
2023-01-20T15:16:45.552Z,40.50
2023-01-20T15:19:16.899Z,35.80
2023-01-20T15:21:56.664Z,50.80
2023-01-20T15:24:34.774Z,43.40
2023-01-20T15:27:31.785Z,60.70
2023-01-20T15:30:01.950Z,92.90
2023-01-20T15:32:30.608Z,32.40
2023-01-20T15:34:58.984Z,60.50
2023-01-20T15:37:27.381Z,32.90
2023-01-20T15:39:59.117Z,36.90
2023-01-20T15:42:27.560Z,36.10
2023-01-20T15:44:55.890Z,31.20
2023-01-20T15:47:31.457Z,27.90
2023-01-20T15:50:00.630Z,26.20
2023-01-20T15:52:31.465Z,23.70
2023-01-20T15:55:01.702Z,24.30
2023-01-20T15:57:30.183Z,24.90
2023-01-20T15:59:58.463Z,29.00
2023-01-20T16:02:26.762Z,50.90
2023-01-20T16:04:55.212Z,87.70
2023-01-20T16:07:24.522Z,39.00
2023-01-20T16:09:53.415Z,57.30
2023-01-20T16:12:21.692Z,43.40
2023-01-20T16:14:50.690Z,63.50
2023-01-20T16:17:21.802Z,43.80
2023-01-20T16:19:50.831Z,54.90
2023-01-20T16:22:19.212Z,78.90
2023-01-20T16:24:49.569Z,84.80
2023-01-20T16:27:20.792Z,54.50
2023-01-20T16:29:50.082Z,32.90
2023-01-20T16:32:22.334Z,37.70
2023-01-20T16:34:51.558Z,34.70
2023-01-20T16:37:20.348Z,86.20
2023-01-20T16:39:49.547Z,62.90
2023-01-20T16:42:20.311Z,61.20
2023-01-20T16:44:49.794Z,35.50
2023-01-20T16:47:18.598Z,43.80
2023-01-20T16:49:47.574Z,29.90
2023-01-20T16:52:39.650Z,37.40
2023-01-20T16:55:09.029Z,38.90
2023-01-20T16:57:37.695Z,35.10
2023-01-20T17:00:07.548Z,19.00
2023-01-20T17:02:35.997Z,39.20
2023-01-20T17:05:06.869Z,22.30
2023-01-20T17:07:37.355Z,17.40
2023-01-20T17:10:06.869Z,17.50
2023-01-20T17:12:36.242Z,16.00
2023-01-20T17:15:05.789Z,23.90
2023-01-20T17:17:38.774Z,21.40
2023-01-20T17:20:10.526Z,25.10
2023-01-20T17:22:40.117Z,9.10
2023-01-20T17:25:10.988Z,7.60
2023-01-20T17:27:39.677Z,5.80
2023-01-20T17:30:10.693Z,7.20
2023-01-20T17:32:39.710Z,5.20
2023-01-20T17:35:09.879Z,4.70
2023-01-20T17:37:39.456Z,4.20
2023-01-20T17:40:09.494Z,3.90
2023-01-20T17:42:39.168Z,2.40
2023-01-20T17:45:08.691Z,2.90
2023-01-20T17:47:38.183Z,4.80
2023-01-20T17:50:09.131Z,2.60
2023-01-20T17:52:37.614Z,3.40
2023-01-20T17:55:06.710Z,2.70
2023-01-20T17:57:35.085Z,3.50
2023-01-20T18:00:05.678Z,3.10
2023-01-20T18:02:34.164Z,2.30
2023-01-20T18:05:04.360Z,2.70
2023-01-20T18:07:32.919Z,1.30
2023-01-20T18:10:01.541Z,2.10
2023-01-20T18:12:31.319Z,2.60
2023-01-20T18:14:59.685Z,1.40
2023-01-20T18:17:28.083Z,2.80
2023-01-20T18:19:56.174Z,1.00
2023-01-20T18:22:24.928Z,2.60
2023-01-20T18:24:53.330Z,2.30
2023-01-20T18:27:22.931Z,1.40
2023-01-20T18:29:51.429Z,0.80
2023-01-20T18:32:19.585Z,2.40
2023-01-20T18:34:48.375Z,1.50
2023-01-20T18:37:18.217Z,4.30
2023-01-20T18:39:46.407Z,2.60
2023-01-20T18:42:14.889Z,3.20
2023-01-20T18:44:43.836Z,3.40
2023-01-20T18:47:12.121Z,15.20
2023-01-20T18:49:40.410Z,8.30
2023-01-20T18:52:08.909Z,5.10
2023-01-20T18:54:40.540Z,10.00
2023-01-20T18:57:09.182Z,6.50
2023-01-20T18:59:37.819Z,11.60
2023-01-20T19:02:06.876Z,11.70
2023-01-20T19:04:37.187Z,19.70
2023-01-20T19:07:06.436Z,20.70
2023-01-20T19:09:34.744Z,7.80
2023-01-20T19:12:05.420Z,5.70
2023-01-20T19:14:34.249Z,16.30
2023-01-20T19:17:02.987Z,21.80
2023-01-20T19:19:31.414Z,9.00
2023-01-20T19:21:59.894Z,10.60
2023-01-20T19:24:29.403Z,11.30
2023-01-20T19:27:00.649Z,12.90
2023-01-20T19:29:33.396Z,14.30
2023-01-20T19:32:05.610Z,4.80
2023-01-20T19:34:35.110Z,5.50
2023-01-20T19:37:03.480Z,2.10
2023-01-20T19:39:32.805Z,8.90
2023-01-20T19:42:01.173Z,3.80
2023-01-20T19:44:29.862Z,3.90
2023-01-20T19:47:04.346Z,11.90
2023-01-20T19:49:32.659Z,6.80
2023-01-20T19:52:00.891Z,7.40
2023-01-20T19:54:31.375Z,8.70
2023-01-20T19:57:01.599Z,6.20
2023-01-20T19:59:32.429Z,12.70
2023-01-20T20:02:01.448Z,21.60
2023-01-20T20:04:30.109Z,12.30
2023-01-20T20:06:58.826Z,14.80
2023-01-20T20:09:28.214Z,14.10
2023-01-20T20:11:58.022Z,11.60
2023-01-20T20:14:28.186Z,6.10
2023-01-20T20:16:56.621Z,10.50
2023-01-20T20:19:25.388Z,11.70
2023-01-20T20:21:54.113Z,16.10
2023-01-20T20:24:23.189Z,10.10
2023-01-20T20:26:53.516Z,14.50
2023-01-20T20:29:22.027Z,12.00
2023-01-20T20:31:51.658Z,15.90
2023-01-20T20:34:20.165Z,14.60
2023-01-20T20:36:48.583Z,20.30
2023-01-20T20:39:18.710Z,16.00
2023-01-20T20:41:47.649Z,21.80
2023-01-20T20:44:16.590Z,21.40
2023-01-20T20:46:45.538Z,15.70
2023-01-20T20:49:16.027Z,17.80
2023-01-20T20:51:45.129Z,12.50
2023-01-20T20:54:17.176Z,13.70
2023-01-20T20:56:46.391Z,7.80
2023-01-20T20:59:14.771Z,8.20
2023-01-20T21:01:43.108Z,13.30
2023-01-20T21:04:12.461Z,8.60
2023-01-20T21:06:40.727Z,10.10
2023-01-20T21:09:10.428Z,13.00
2023-01-20T21:11:38.829Z,16.80
2023-01-20T21:14:08.545Z,11.20
2023-01-20T21:16:38.048Z,22.00
2023-01-20T21:19:07.238Z,24.10
2023-01-20T21:21:35.509Z,19.90
2023-01-20T21:24:04.541Z,26.40
2023-01-20T21:26:32.997Z,34.30
2023-01-20T21:29:03.114Z,25.90
2023-01-20T21:31:32.129Z,22.20
2023-01-20T21:34:01.211Z,61.60
2023-01-20T21:36:31.934Z,46.60
2023-01-20T21:39:00.428Z,23.10
2023-01-20T21:41:29.228Z,23.50
2023-01-20T21:44:16.235Z,16.80
2023-01-20T21:46:45.038Z,12.00
2023-01-20T21:49:32.675Z,13.40
2023-01-20T21:52:19.803Z,9.80
2023-01-20T21:54:48.258Z,7.00
2023-01-20T21:57:17.604Z,7.40
2023-01-20T21:59:46.346Z,5.20
2023-01-20T22:02:15.252Z,3.90
2023-01-20T22:04:46.411Z,4.70
2023-01-20T22:07:16.306Z,6.70
2023-01-20T22:09:44.584Z,19.90
2023-01-20T22:12:13.590Z,21.70
2023-01-20T22:14:42.063Z,19.80
2023-01-20T22:17:12.390Z,37.20
2023-01-20T22:19:40.868Z,36.70
2023-01-20T22:22:09.124Z,25.60
2023-01-20T22:24:37.651Z,26.70
2023-01-20T22:27:06.113Z,31.10
2023-01-20T22:29:34.453Z,27.90
2023-01-20T22:32:04.420Z,24.20
2023-01-20T22:34:32.672Z,20.00
2023-01-20T22:37:01.936Z,26.20
2023-01-20T22:39:30.389Z,22.90
2023-01-20T22:41:58.961Z,11.40
2023-01-20T22:44:27.647Z,10.40
2023-01-20T22:46:56.247Z,17.20
2023-01-20T22:49:24.962Z,13.60
2023-01-20T22:51:55.266Z,16.80
2023-01-20T22:54:23.523Z,12.00
2023-01-20T22:56:51.643Z,8.60
2023-01-20T22:59:19.874Z,11.00
2023-01-20T23:01:48.198Z,10.50
2023-01-20T23:04:16.245Z,8.60
2023-01-20T23:06:44.604Z,17.30
2023-01-20T23:09:14.611Z,9.10
2023-01-20T23:11:43.226Z,11.20
2023-01-20T23:14:13.696Z,9.40
2023-01-20T23:16:42.984Z,6.80
2023-01-20T23:19:11.830Z,3.30
2023-01-20T23:21:40.323Z,3.50
2023-01-20T23:24:09.739Z,3.00
2023-01-20T23:26:38.420Z,5.90
2023-01-20T23:29:06.621Z,4.30
2023-01-20T23:31:35.506Z,4.70
2023-01-20T23:34:04.123Z,5.70
2023-01-20T23:36:32.848Z,5.20
2023-01-20T23:39:01.746Z,6.20
2023-01-20T23:41:30.127Z,6.00
2023-01-20T23:43:58.622Z,3.70
2023-01-20T23:46:26.874Z,5.10
2023-01-20T23:48:55.509Z,6.40
2023-01-20T23:51:23.951Z,4.70
2023-01-20T23:53:52.647Z,7.60
2023-01-20T23:56:23.974Z,7.90
2023-01-20T23:58:52.583Z,7.40
